createdAt,value
2019-04-25T00:00:51.336Z,98.96
2019-04-25T00:01:49.720Z,99.05
2019-04-25T00:02:50.942Z,99.51
2019-04-25T00:03:49.673Z,99.05
2019-04-25T00:04:49.667Z,99.16
2019-04-25T00:05:49.654Z,98.96
2019-04-25T00:06:49.667Z,99.37
2019-04-25T00:07:49.628Z,99.05
2019-04-25T00:08:49.628Z,98.96
2019-04-25T00:09:49.638Z,99.37
2019-04-25T00:10:49.598Z,98.85
2019-04-25T00:11:49.614Z,99.37
2019-04-25T00:12:49.580Z,98.96
2019-04-25T00:13:49.574Z,98.65
2019-04-25T00:14:51.042Z,98.54
2019-04-25T00:15:49.558Z,98.69
2019-04-25T00:16:49.538Z,98.75
2019-04-25T00:17:49.530Z,99.05
2019-04-25T00:18:49.509Z,99.16
2019-04-25T00:19:51.025Z,99.47
2019-04-25T00:20:49.498Z,99.37
2019-04-25T00:21:49.481Z,98.96
2019-04-25T00:22:49.482Z,98.54
2019-04-25T00:23:49.484Z,98.75
2019-04-25T00:24:49.525Z,98.13
2019-04-25T00:25:49.444Z,98.33
2019-04-25T00:26:49.460Z,98.33
2019-04-25T00:27:49.423Z,98.03
2019-04-25T00:28:49.418Z,98.85
2019-04-25T00:29:49.399Z,98.96
2019-04-25T00:30:49.381Z,98.85
2019-04-25T00:31:49.389Z,98.28
2019-04-25T00:32:49.406Z,98.38
2019-04-25T00:33:49.593Z,98.07
2019-04-25T00:34:49.375Z,98.96
2019-04-25T00:35:49.607Z,98.90
2019-04-25T00:36:49.341Z,98.44
2019-04-25T00:37:49.874Z,98.59
2019-04-25T00:38:50.266Z,98.85
2019-04-25T00:39:49.288Z,98.59
2019-04-25T00:40:50.085Z,98.79
2019-04-25T00:41:49.387Z,98.65
2019-04-25T00:42:49.263Z,98.54
2019-04-25T00:43:49.608Z,98.54
2019-04-25T00:44:49.575Z,98.96
2019-04-25T00:45:49.570Z,98.85
2019-04-25T00:46:53.645Z,98.03
2019-04-25T00:47:51.857Z,98.33
2019-04-25T00:48:49.813Z,98.33
2019-04-25T00:49:50.005Z,98.03
2019-04-25T00:50:49.895Z,98.44
2019-04-25T00:51:49.165Z,97.62
2019-04-25T00:52:49.167Z,97.72
2019-04-25T00:53:49.138Z,97.62
2019-04-25T00:54:49.133Z,97.41
2019-04-25T00:55:49.129Z,97.20
2019-04-25T00:56:49.430Z,97.62
2019-04-25T00:57:49.132Z,97.62
2019-04-25T00:58:49.088Z,97.62
2019-04-25T00:59:49.078Z,97.62
2019-04-25T01:00:49.120Z,98.59
2019-04-25T01:01:49.336Z,98.75
2019-04-25T01:02:49.436Z,97.82
2019-04-25T01:03:49.322Z,97.66
2019-04-25T01:04:49.267Z,97.62
2019-04-25T01:05:49.621Z,97.87
2019-04-25T01:06:49.723Z,97.56
2019-04-25T01:07:49.788Z,98.03
2019-04-25T01:08:49.807Z,98.07
2019-04-25T01:09:49.915Z,97.56
2019-04-25T01:10:48.964Z,97.41
2019-04-25T01:11:48.950Z,97.25
2019-04-25T01:12:48.938Z,97.45
2019-04-25T01:13:48.944Z,97.56
2019-04-25T01:14:48.919Z,97.62
2019-04-25T01:15:48.929Z,96.80
2019-04-25T01:16:48.900Z,96.80
2019-04-25T01:17:48.939Z,96.59
2019-04-25T01:18:48.920Z,96.59
2019-04-25T01:19:48.933Z,96.80
2019-04-25T01:20:49.059Z,96.69
2019-04-25T01:21:49.147Z,96.69
2019-04-25T01:22:49.314Z,96.48
2019-04-25T01:23:49.408Z,96.39
2019-04-25T01:24:49.416Z,96.14
2019-04-25T01:25:49.485Z,96.28
2019-04-25T01:26:49.603Z,95.97
2019-04-25T01:27:49.714Z,95.97
2019-04-25T01:28:49.681Z,96.14
2019-04-25T01:29:48.780Z,96.08
2019-04-25T01:30:48.746Z,96.48
2019-04-25T01:31:48.741Z,96.59
2019-04-25T01:32:48.720Z,96.69
2019-04-25T01:33:48.716Z,96.28
2019-04-25T01:34:48.726Z,95.87
2019-04-25T01:35:48.718Z,96.59
2019-04-25T01:36:48.700Z,96.59
2019-04-25T01:37:49.009Z,96.39
2019-04-25T01:38:49.113Z,96.69
2019-04-25T01:39:48.957Z,96.28
2019-04-25T01:40:49.500Z,96.48
2019-04-25T01:41:49.175Z,96.39
2019-04-25T01:42:49.569Z,96.48
2019-04-25T01:43:51.468Z,96.48
2019-04-25T01:44:49.435Z,96.64
2019-04-25T01:45:49.654Z,97.05
2019-04-25T01:46:48.592Z,96.73
2019-04-25T01:47:49.291Z,96.84
2019-04-25T01:48:48.656Z,97.66
2019-04-25T01:49:48.881Z,97.77
2019-04-25T01:50:49.631Z,97.66
2019-04-25T01:51:48.895Z,97.87
2019-04-25T01:52:48.957Z,97.97
2019-04-25T01:53:49.094Z,97.62
2019-04-25T01:54:49.312Z,98.13
2019-04-25T01:55:55.848Z,97.82
2019-04-25T01:56:49.473Z,97.82
2019-04-25T01:57:49.326Z,97.77
2019-04-25T01:58:48.887Z,97.66
2019-04-25T01:59:49.775Z,97.52
2019-04-25T02:00:48.437Z,96.94
2019-04-25T02:01:48.810Z,96.73
2019-04-25T02:02:48.407Z,96.84
2019-04-25T02:03:48.393Z,96.73
2019-04-25T02:04:48.422Z,95.92
2019-04-25T02:05:48.371Z,95.87
2019-04-25T02:06:48.373Z,96.18
2019-04-25T02:07:48.356Z,96.18
2019-04-25T02:08:48.344Z,95.87
2019-04-25T02:09:48.334Z,96.28
2019-04-25T02:10:48.345Z,95.67
2019-04-25T02:11:48.310Z,95.97
2019-04-25T02:12:48.303Z,95.77
2019-04-25T02:13:48.290Z,95.67
2019-04-25T02:14:48.285Z,95.97
2019-04-25T02:15:48.290Z,96.08
2019-04-25T02:16:48.252Z,95.87
2019-04-25T02:17:48.250Z,95.50
2019-04-25T02:18:48.238Z,96.02
2019-04-25T02:19:48.233Z,95.25
2019-04-25T02:20:48.244Z,95.05
2019-04-25T02:21:48.206Z,94.64
2019-04-25T02:22:48.189Z,95.46
2019-04-25T02:23:48.177Z,94.95
2019-04-25T02:24:48.164Z,95.05
2019-04-25T02:25:48.185Z,95.05
2019-04-25T02:26:48.151Z,94.33
2019-04-25T02:27:48.139Z,94.43
2019-04-25T02:28:48.121Z,94.74
2019-04-25T02:29:48.113Z,94.64
2019-04-25T02:30:48.143Z,95.15
2019-04-25T02:31:48.101Z,94.95
2019-04-25T02:32:48.091Z,94.95
2019-04-25T02:33:48.078Z,94.84
2019-04-25T02:34:48.059Z,94.12
2019-04-25T02:35:48.066Z,94.43
2019-04-25T02:36:48.038Z,94.43
2019-04-25T02:37:48.031Z,94.23
2019-04-25T02:38:48.027Z,93.61
2019-04-25T02:39:48.015Z,94.33
2019-04-25T02:40:48.044Z,94.23
2019-04-25T02:41:47.988Z,94.27
2019-04-25T02:42:47.977Z,94.33
2019-04-25T02:43:47.965Z,93.92
2019-04-25T02:44:47.957Z,94.37
2019-04-25T02:45:47.977Z,94.74
2019-04-25T02:46:47.956Z,94.23
2019-04-25T02:47:47.922Z,94.12
2019-04-25T02:48:47.910Z,93.96
2019-04-25T02:49:47.905Z,94.12
2019-04-25T02:50:47.933Z,93.61
2019-04-25T02:51:47.881Z,94.12
2019-04-25T02:52:47.874Z,94.33
2019-04-25T02:53:47.865Z,94.02
2019-04-25T02:54:47.845Z,93.92
2019-04-25T02:55:47.857Z,93.82
2019-04-25T02:56:47.827Z,94.02
2019-04-25T02:57:47.821Z,94.48
2019-04-25T02:58:47.822Z,93.71
2019-04-25T02:59:47.801Z,94.17
2019-04-25T03:00:57.295Z,94.74
2019-04-25T03:01:48.769Z,94.43
2019-04-25T03:02:47.765Z,93.61
2019-04-25T03:03:47.766Z,94.23
2019-04-25T03:04:47.874Z,93.92
2019-04-25T03:05:48.057Z,93.76
2019-04-25T03:06:47.764Z,94.64
2019-04-25T03:07:47.750Z,94.95
2019-04-25T03:08:47.695Z,94.68
2019-04-25T03:09:47.685Z,94.54
2019-04-25T03:10:47.675Z,94.58
2019-04-25T03:11:47.952Z,94.54
2019-04-25T03:12:47.660Z,94.37
2019-04-25T03:13:47.658Z,93.96
2019-04-25T03:14:47.632Z,93.96
2019-04-25T03:15:47.617Z,94.54
2019-04-25T03:16:47.646Z,94.78
2019-04-25T03:17:47.603Z,94.89
2019-04-25T03:18:47.598Z,94.58
2019-04-25T03:19:47.580Z,94.07
2019-04-25T03:20:47.567Z,94.17
2019-04-25T03:21:47.577Z,94.99
2019-04-25T03:22:47.546Z,94.78
2019-04-25T03:23:47.552Z,93.96
2019-04-25T03:24:47.530Z,94.37
2019-04-25T03:25:47.517Z,94.68
2019-04-25T03:26:47.542Z,94.48
2019-04-25T03:27:47.495Z,94.99
2019-04-25T03:28:47.478Z,94.89
2019-04-25T03:29:47.470Z,95.09
2019-04-25T03:30:47.469Z,94.58
2019-04-25T03:31:47.479Z,94.37
2019-04-25T03:32:51.288Z,94.89
2019-04-25T03:33:47.439Z,94.58
2019-04-25T03:34:47.422Z,94.37
2019-04-25T03:35:47.415Z,94.42
2019-04-25T03:36:47.433Z,94.52
2019-04-25T03:37:47.397Z,94.99
2019-04-25T03:38:47.375Z,94.93
2019-04-25T03:39:47.360Z,95.03
2019-04-25T03:40:47.351Z,95.45
2019-04-25T03:41:47.362Z,95.55
2019-04-25T03:42:47.334Z,95.24
2019-04-25T03:43:47.326Z,94.87
2019-04-25T03:44:47.312Z,95.55
2019-04-25T03:45:47.305Z,95.14
2019-04-25T03:46:47.308Z,95.14
2019-04-25T03:47:47.283Z,95.34
2019-04-25T03:48:47.271Z,95.03
2019-04-25T03:49:47.280Z,95.03
2019-04-25T03:50:47.247Z,95.03
2019-04-25T03:51:47.255Z,94.83
2019-04-25T03:52:47.250Z,94.93
2019-04-25T03:53:47.212Z,94.31
2019-04-25T03:54:47.208Z,94.52
2019-04-25T03:55:47.197Z,94.17
2019-04-25T03:56:53.527Z,94.42
2019-04-25T03:57:48.182Z,94.42
2019-04-25T03:58:47.158Z,93.76
2019-04-25T03:59:47.169Z,93.90
2019-04-25T04:00:47.136Z,94.42
2019-04-25T04:01:47.128Z,94.07
2019-04-25T04:02:47.142Z,94.37
2019-04-25T04:03:47.110Z,93.65
2019-04-25T04:04:47.094Z,94.17
2019-04-25T04:05:47.086Z,94.37
2019-04-25T04:06:47.082Z,94.11
2019-04-25T04:07:47.089Z,93.29
2019-04-25T04:08:47.066Z,94.21
2019-04-25T04:09:47.045Z,94.07
2019-04-25T04:10:47.032Z,94.37
2019-04-25T04:11:47.016Z,94.11
2019-04-25T04:12:47.036Z,93.55
2019-04-25T04:13:46.998Z,93.24
2019-04-25T04:14:47.011Z,93.65
2019-04-25T04:15:46.984Z,93.76
2019-04-25T04:16:46.976Z,93.49
2019-04-25T04:17:46.977Z,93.96
2019-04-25T04:18:46.949Z,94.17
2019-04-25T04:19:46.937Z,93.76
2019-04-25T04:20:46.929Z,93.76
2019-04-25T04:21:46.919Z,93.86
2019-04-25T04:22:46.941Z,93.55
2019-04-25T04:23:46.891Z,92.93
2019-04-25T04:24:46.877Z,93.76
2019-04-25T04:25:46.871Z,93.55
2019-04-25T04:26:46.872Z,93.35
2019-04-25T04:27:46.883Z,93.76
2019-04-25T04:28:46.843Z,93.96
2019-04-25T04:29:46.832Z,93.96
2019-04-25T04:30:46.819Z,93.96
2019-04-25T04:31:46.810Z,93.20
2019-04-25T04:32:46.796Z,92.69
2019-04-25T04:33:46.803Z,92.07
2019-04-25T04:34:46.783Z,92.38
2019-04-25T04:35:46.789Z,92.27
2019-04-25T04:36:46.796Z,91.45
2019-04-25T04:37:46.743Z,90.94
2019-04-25T04:38:46.792Z,90.89
2019-04-25T04:39:46.732Z,90.89
2019-04-25T04:40:46.722Z,90.48
2019-04-25T04:41:46.703Z,90.38
2019-04-25T04:42:46.719Z,90.08
2019-04-25T04:43:46.714Z,90.44
2019-04-25T04:44:46.663Z,90.44
2019-04-25T04:45:46.674Z,90.34
2019-04-25T04:46:46.650Z,90.48
2019-04-25T04:47:46.639Z,89.31
2019-04-25T04:48:46.648Z,88.70
2019-04-25T04:49:46.613Z,89.21
2019-04-25T04:50:46.600Z,89.62
2019-04-25T04:51:46.588Z,89.37
2019-04-25T04:52:46.584Z,88.24
2019-04-25T04:53:46.590Z,88.14
2019-04-25T04:54:46.562Z,88.76
2019-04-25T04:55:46.546Z,88.24
2019-04-25T04:56:46.532Z,87.84
2019-04-25T04:57:46.532Z,88.21
2019-04-25T04:58:46.549Z,88.10
2019-04-25T04:59:46.509Z,87.24
2019-04-25T05:00:46.495Z,88.06
2019-04-25T05:01:46.477Z,86.42
2019-04-25T05:02:46.482Z,86.32
2019-04-25T05:03:46.487Z,86.22
2019-04-25T05:04:46.454Z,85.50
2019-04-25T05:05:46.446Z,85.91
2019-04-25T05:06:46.433Z,85.97
2019-04-25T05:07:46.428Z,85.77
2019-04-25T05:08:46.494Z,85.46
2019-04-25T05:09:46.398Z,85.36
2019-04-25T05:10:46.383Z,85.25
2019-04-25T05:11:46.381Z,85.25
2019-04-25T05:12:46.373Z,85.15
2019-04-25T05:13:46.358Z,85.25
2019-04-25T05:14:46.370Z,85.87
2019-04-25T05:15:46.343Z,84.95
2019-04-25T05:16:46.348Z,85.25
2019-04-25T05:17:46.321Z,85.11
2019-04-25T05:18:46.301Z,85.22
2019-04-25T05:19:46.301Z,85.11
2019-04-25T05:20:46.277Z,84.91
2019-04-25T05:21:46.284Z,84.95
2019-04-25T05:22:46.261Z,85.36
2019-04-25T05:23:46.250Z,85.87
2019-04-25T05:24:46.235Z,85.87
2019-04-25T05:25:46.225Z,85.25
2019-04-25T05:26:46.240Z,85.46
2019-04-25T05:27:59.417Z,85.25
2019-04-25T05:28:47.216Z,85.36
2019-04-25T05:29:46.187Z,85.36
2019-04-25T05:30:46.202Z,85.36
2019-04-25T05:31:46.160Z,85.15
2019-04-25T05:32:46.266Z,84.91
2019-04-25T05:33:46.138Z,84.80
2019-04-25T05:34:49.147Z,84.29
2019-04-25T05:35:46.122Z,84.19
2019-04-25T05:36:46.135Z,84.36
2019-04-25T05:37:46.121Z,83.39
2019-04-25T05:38:46.080Z,82.40
2019-04-25T05:39:46.073Z,80.24
2019-04-25T05:40:46.077Z,78.74
2019-04-25T05:41:46.081Z,74.55
2019-04-25T05:42:46.063Z,73.09
2019-04-25T05:43:46.029Z,68.90
2019-04-25T05:44:46.020Z,65.99
2019-04-25T05:45:46.005Z,65.36
2019-04-25T05:46:46.023Z,64.28
2019-04-25T05:47:46.012Z,63.38
2019-04-25T05:48:45.979Z,60.77
2019-04-25T05:49:45.969Z,59.60
2019-04-25T05:50:45.952Z,58.12
2019-04-25T05:51:45.943Z,60.85
2019-04-25T05:52:46.066Z,63.09
2019-04-25T05:53:47.177Z,65.65
2019-04-25T05:54:45.917Z,67.03
2019-04-25T05:55:45.908Z,68.85
2019-04-25T05:56:45.889Z,72.17
2019-04-25T05:57:50.010Z,72.75
2019-04-25T05:58:45.902Z,73.47
2019-04-25T05:59:45.863Z,75.98
2019-04-25T06:00:45.852Z,76.22
2019-04-25T06:01:45.840Z,75.98
2019-04-25T06:02:46.209Z,74.79
2019-04-25T06:03:45.815Z,74.96
2019-04-25T06:04:45.821Z,73.23
2019-04-25T06:05:45.814Z,74.42
2019-04-25T06:06:45.790Z,74.52
2019-04-25T06:07:45.797Z,74.35
2019-04-25T06:08:45.786Z,72.62
2019-04-25T06:09:45.759Z,67.30
2019-04-25T06:10:45.755Z,65.99
2019-04-25T06:11:45.728Z,62.86
2019-04-25T06:12:45.721Z,62.07
2019-04-25T06:13:45.712Z,61.37
2019-04-25T06:14:45.692Z,60.88
2019-04-25T06:15:45.723Z,62.63
2019-04-25T06:16:45.674Z,62.33
2019-04-25T06:17:45.658Z,64.79
2019-04-25T06:18:45.669Z,64.04
2019-04-25T06:19:45.643Z,64.95
2019-04-25T06:20:45.637Z,63.50
2019-04-25T06:21:45.643Z,63.60
2019-04-25T06:22:45.605Z,65.42
2019-04-25T06:23:46.037Z,62.71
2019-04-25T06:24:45.590Z,58.78
2019-04-25T06:25:45.574Z,61.59
2019-04-25T06:26:45.570Z,63.41
2019-04-25T06:27:56.497Z,62.70
2019-04-25T06:28:53.863Z,62.51
2019-04-25T06:29:57.630Z,57.96
2019-04-25T06:30:46.546Z,60.21
2019-04-25T06:31:45.517Z,60.17
2019-04-25T06:32:45.505Z,60.21
2019-04-25T06:33:45.661Z,59.18
2019-04-25T06:34:45.478Z,62.60
2019-04-25T06:35:45.469Z,63.78
2019-04-25T06:36:45.486Z,64.37
2019-04-25T06:37:45.444Z,65.75
2019-04-25T06:38:45.460Z,66.05
2019-04-25T06:39:45.427Z,66.93
2019-04-25T06:40:45.417Z,68.79
2019-04-25T06:41:45.416Z,67.47
2019-04-25T06:42:46.837Z,68.82
2019-04-25T06:43:45.404Z,67.60
2019-04-25T06:44:45.410Z,67.57
2019-04-25T06:45:45.369Z,67.40
2019-04-25T06:46:45.385Z,67.16
2019-04-25T06:47:45.342Z,66.35
2019-04-25T06:48:45.695Z,65.94
2019-04-25T06:49:45.315Z,67.06
2019-04-25T06:50:45.345Z,66.66
2019-04-25T06:51:46.118Z,67.47
2019-04-25T06:52:45.287Z,67.47
2019-04-25T06:53:45.280Z,66.89
2019-04-25T06:54:45.261Z,66.38
2019-04-25T06:55:45.256Z,68.62
2019-04-25T06:56:45.263Z,68.11
2019-04-25T06:57:45.229Z,68.96
2019-04-25T06:58:45.243Z,68.82
2019-04-25T06:59:45.209Z,67.77
2019-04-25T07:00:57.508Z,67.40
2019-04-25T07:01:46.182Z,67.83
2019-04-25T07:02:45.196Z,68.32
2019-04-25T07:03:45.170Z,67.91
2019-04-25T07:04:45.692Z,66.42
2019-04-25T07:05:45.148Z,66.66
2019-04-25T07:06:45.629Z,64.88
2019-04-25T07:07:45.469Z,65.82
2019-04-25T07:08:45.110Z,65.99
2019-04-25T07:09:45.146Z,64.75
2019-04-25T07:10:45.094Z,62.23
2019-04-25T07:11:48.087Z,61.62
2019-04-25T07:12:45.094Z,63.95
2019-04-25T07:13:45.063Z,63.18
2019-04-25T07:14:45.065Z,61.83
2019-04-25T07:15:45.059Z,59.28
2019-04-25T07:16:45.030Z,58.27
2019-04-25T07:17:45.770Z,59.96
2019-04-25T07:18:44.999Z,56.73
2019-04-25T07:19:45.010Z,60.49
2019-04-25T07:20:45.331Z,59.81
2019-04-25T07:21:44.975Z,60.42
2019-04-25T07:22:44.967Z,59.21
2019-04-25T07:23:46.270Z,59.78
2019-04-25T07:24:44.978Z,58.85
2019-04-25T07:25:44.937Z,59.54
2019-04-25T07:26:44.916Z,58.91
2019-04-25T07:27:44.919Z,59.34
2019-04-25T07:28:44.895Z,57.76
2019-04-25T07:29:44.900Z,57.38
2019-04-25T07:30:50.182Z,56.42
2019-04-25T07:31:45.863Z,55.56
2019-04-25T07:32:44.871Z,55.26
2019-04-25T07:33:44.839Z,56.95
2019-04-25T07:34:44.854Z,54.28
2019-04-25T07:35:44.823Z,55.96
2019-04-25T07:36:45.629Z,55.76
2019-04-25T07:37:44.830Z,56.37
2019-04-25T07:38:44.784Z,54.91
2019-04-25T07:39:44.793Z,53.80
2019-04-25T07:40:44.774Z,55.06
2019-04-25T07:41:44.753Z,54.55
2019-04-25T07:42:44.755Z,54.96
2019-04-25T07:43:44.735Z,54.73
2019-04-25T07:44:51.678Z,55.57
2019-04-25T07:45:45.736Z,56.70
2019-04-25T07:46:44.700Z,57.97
2019-04-25T07:47:44.714Z,59.64
2019-04-25T07:48:44.704Z,59.80
2019-04-25T07:49:44.672Z,61.65
2019-04-25T07:50:44.684Z,62.99
2019-04-25T07:51:45.403Z,62.95
2019-04-25T07:52:44.637Z,63.69
2019-04-25T07:53:44.623Z,65.11
2019-04-25T07:54:44.627Z,64.91
2019-04-25T07:55:44.624Z,65.72
2019-04-25T07:56:44.594Z,65.65
2019-04-25T07:57:44.604Z,65.37
2019-04-25T07:58:50.545Z,66.60
2019-04-25T07:59:45.560Z,66.80
2019-04-25T08:00:44.573Z,64.84
2019-04-25T08:01:44.535Z,66.49
2019-04-25T08:02:44.578Z,65.99
2019-04-25T08:03:44.519Z,65.45
2019-04-25T08:04:44.505Z,65.42
2019-04-25T08:05:44.500Z,65.48
2019-04-25T08:06:44.672Z,65.39
2019-04-25T08:07:44.479Z,63.63
2019-04-25T08:08:44.484Z,63.17
2019-04-25T08:09:44.458Z,60.65
2019-04-25T08:10:45.362Z,57.31
2019-04-25T08:11:44.429Z,54.66
2019-04-25T08:12:46.000Z,53.45
2019-04-25T08:13:44.433Z,53.72
2019-04-25T08:14:45.933Z,53.42
2019-04-25T08:15:44.409Z,51.64
2019-04-25T08:16:44.378Z,52.26
2019-04-25T08:17:44.369Z,50.92
2019-04-25T08:18:44.375Z,50.96
2019-04-25T08:19:44.360Z,50.02
2019-04-25T08:20:44.357Z,45.39
2019-04-25T08:21:45.208Z,41.42
2019-04-25T08:22:55.720Z,41.99
2019-04-25T08:23:45.301Z,38.65
2019-04-25T08:24:44.310Z,36.88
2019-04-25T08:25:44.299Z,34.80
2019-04-25T08:26:44.274Z,32.61
2019-04-25T08:27:45.076Z,32.07
2019-04-25T08:28:55.030Z,31.54
2019-04-25T08:29:46.518Z,31.97
2019-04-25T08:30:44.230Z,31.77
2019-04-25T08:31:45.260Z,33.53
2019-04-25T08:32:44.213Z,32.29
2019-04-25T08:33:46.582Z,32.51
2019-04-25T08:34:44.724Z,31.02
2019-04-25T08:36:03.071Z,30.14
2019-04-25T08:36:45.769Z,31.33
2019-04-25T08:37:44.266Z,31.30
2019-04-25T08:38:44.786Z,29.93
2019-04-25T08:39:45.187Z,30.84
2019-04-25T08:40:44.254Z,30.80
2019-04-25T08:41:45.571Z,31.29
2019-04-25T08:42:44.261Z,29.21
2019-04-25T08:43:45.465Z,28.99
2019-04-25T08:44:44.978Z,32.26
2019-04-25T08:45:44.334Z,33.80
2019-04-25T08:46:47.118Z,29.58
2019-04-25T08:47:44.066Z,32.39
2019-04-25T08:48:44.422Z,33.04
2019-04-25T08:49:45.884Z,32.29
2019-04-25T08:50:44.551Z,33.62
2019-04-25T08:51:44.538Z,34.81
2019-04-25T08:52:44.361Z,37.39
2019-04-25T08:53:45.034Z,36.64
2019-04-25T08:54:47.255Z,34.55
2019-04-25T08:55:45.582Z,34.64
2019-04-25T08:56:44.093Z,34.05
2019-04-25T08:57:44.115Z,34.46
2019-04-25T08:58:44.593Z,36.51
2019-04-25T08:59:49.138Z,37.51
2019-04-25T09:00:44.943Z,39.61
2019-04-25T09:01:45.168Z,38.73
2019-04-25T09:02:44.918Z,40.44
2019-04-25T09:03:44.402Z,39.97
2019-04-25T09:04:44.611Z,40.20
2019-04-25T09:05:45.950Z,40.44
2019-04-25T09:06:44.337Z,42.02
2019-04-25T09:07:44.496Z,43.85
2019-04-25T09:08:46.442Z,45.51
2019-04-25T09:09:45.122Z,46.74
2019-04-25T09:10:44.913Z,46.58
2019-04-25T09:11:44.651Z,47.53
2019-04-25T09:12:44.312Z,48.96
2019-04-25T09:13:44.953Z,48.78
2019-04-25T09:14:46.251Z,50.61
2019-04-25T09:15:45.603Z,49.21
2019-04-25T09:16:44.867Z,50.53
2019-04-25T09:17:44.455Z,50.61
2019-04-25T09:18:44.362Z,49.91
2019-04-25T09:19:44.463Z,51.17
2019-04-25T09:20:46.370Z,48.81
2019-04-25T09:21:48.121Z,45.94
2019-04-25T09:22:45.574Z,44.67
2019-04-25T09:23:44.803Z,43.67
2019-04-25T09:24:44.412Z,40.20
2019-04-25T09:25:45.104Z,39.06
2019-04-25T09:26:44.259Z,36.69
2019-04-25T09:27:45.394Z,34.31
2019-04-25T09:28:45.499Z,32.31
2019-04-25T09:29:45.231Z,31.66
2019-04-25T09:30:44.863Z,30.22
2019-04-25T09:31:45.152Z,30.11
2019-04-25T09:32:44.605Z,30.33
2019-04-25T09:33:45.449Z,29.85
2019-04-25T09:34:43.811Z,29.30
2019-04-25T09:35:45.765Z,29.58
2019-04-25T09:36:44.026Z,31.43
2019-04-25T09:37:44.951Z,31.64
2019-04-25T09:38:47.003Z,31.54
2019-04-25T09:39:44.327Z,35.00
2019-04-25T09:40:44.485Z,34.61
2019-04-25T09:41:44.136Z,36.06
2019-04-25T09:42:45.053Z,34.95
2019-04-25T09:43:45.599Z,37.90
2019-04-25T09:44:44.180Z,39.15
2019-04-25T09:45:43.975Z,40.32
2019-04-25T09:46:46.472Z,40.32
2019-04-25T09:47:43.799Z,40.16
2019-04-25T09:48:44.607Z,39.29
2019-04-25T09:49:44.820Z,35.22
2019-04-25T09:50:44.216Z,33.44
2019-04-25T09:51:44.599Z,32.34
2019-04-25T09:52:44.569Z,31.50
2019-04-25T09:53:49.329Z,29.64
2019-04-25T09:54:45.192Z,27.64
2019-04-25T09:55:44.096Z,28.05
2019-04-25T09:56:44.819Z,28.19
2019-04-25T09:57:44.551Z,29.75
2019-04-25T09:58:44.642Z,28.92
2019-04-25T09:59:44.000Z,29.76
2019-04-25T10:00:44.753Z,30.51
2019-04-25T10:01:43.963Z,31.34
2019-04-25T10:02:43.317Z,32.62
2019-04-25T10:03:44.450Z,29.61
2019-04-25T10:04:45.209Z,31.18
2019-04-25T10:05:43.283Z,31.09
2019-04-25T10:06:44.649Z,29.58
2019-04-25T10:07:45.957Z,29.07
2019-04-25T10:08:45.090Z,30.17
2019-04-25T10:09:44.594Z,29.34
2019-04-25T10:10:43.240Z,29.17
2019-04-25T10:11:43.953Z,29.37
2019-04-25T10:12:44.206Z,30.16
2019-04-25T10:13:43.802Z,29.03
2019-04-25T10:14:45.218Z,30.36
2019-04-25T10:15:44.722Z,28.06
2019-04-25T10:16:44.496Z,28.44
2019-04-25T10:17:43.929Z,28.88
2019-04-25T10:18:43.759Z,27.49
2019-04-25T10:19:43.509Z,28.57
2019-04-25T10:20:44.869Z,27.76
2019-04-25T10:21:43.129Z,27.65
2019-04-25T10:22:44.565Z,27.87
2019-04-25T10:23:44.083Z,28.38
2019-04-25T10:24:43.131Z,26.46
2019-04-25T10:25:44.129Z,28.04
2019-04-25T10:26:44.062Z,29.28
2019-04-25T10:27:46.468Z,29.45
2019-04-25T10:28:45.140Z,29.63
2019-04-25T10:29:50.930Z,31.59
2019-04-25T10:30:44.062Z,32.12
2019-04-25T10:31:44.281Z,32.12
2019-04-25T10:32:44.300Z,32.21
2019-04-25T10:33:45.272Z,32.96
2019-04-25T10:34:44.680Z,31.96
2019-04-25T10:35:50.686Z,34.45
2019-04-25T10:36:45.371Z,36.13
2019-04-25T10:37:43.722Z,34.94
2019-04-25T10:38:46.251Z,34.08
2019-04-25T10:39:44.824Z,34.83
2019-04-25T10:40:44.836Z,35.38
2019-04-25T10:41:44.826Z,37.37
2019-04-25T10:42:46.470Z,38.76
2019-04-25T10:43:43.906Z,40.46
2019-04-25T10:44:44.830Z,40.06
2019-04-25T10:45:44.771Z,40.66
2019-04-25T10:46:45.717Z,38.60
2019-04-25T10:47:44.231Z,40.50
2019-04-25T10:48:43.763Z,40.36
2019-04-25T10:49:44.671Z,39.06
2019-04-25T10:50:43.884Z,37.88
2019-04-25T10:51:44.677Z,38.67
2019-04-25T10:52:45.756Z,38.78
2019-04-25T10:53:45.392Z,40.22
2019-04-25T10:54:45.301Z,40.42
2019-04-25T10:55:42.917Z,40.36
2019-04-25T10:56:45.708Z,39.34
2019-04-25T10:57:43.656Z,40.36
2019-04-25T10:58:44.476Z,38.84
2019-04-25T10:59:54.588Z,40.22
2019-04-25T11:00:46.148Z,39.24
2019-04-25T11:01:44.675Z,39.14
2019-04-25T11:02:43.784Z,39.90
2019-04-25T11:03:44.520Z,38.70
2019-04-25T11:04:44.564Z,40.30
2019-04-25T11:05:42.838Z,38.70
2019-04-25T11:06:45.361Z,39.00
2019-04-25T11:07:42.665Z,39.30
2019-04-25T11:08:42.654Z,40.30
2019-04-25T11:09:44.969Z,39.30
2019-04-25T11:10:44.228Z,40.18
2019-04-25T11:11:43.137Z,39.66
2019-04-25T11:12:44.234Z,40.36
2019-04-25T11:13:44.045Z,40.52
2019-04-25T11:14:42.589Z,38.67
2019-04-25T11:15:43.371Z,39.14
2019-04-25T11:16:45.225Z,38.96
2019-04-25T11:17:45.175Z,38.37
2019-04-25T11:18:44.856Z,39.58
2019-04-25T11:19:44.408Z,38.18
2019-04-25T11:20:43.094Z,38.98
2019-04-25T11:21:44.288Z,39.90
2019-04-25T11:22:44.621Z,39.80
2019-04-25T11:23:44.760Z,41.22
2019-04-25T11:24:42.485Z,40.30
2019-04-25T11:25:43.420Z,39.92
2019-04-25T11:26:44.661Z,40.42
2019-04-25T11:27:46.626Z,40.22
2019-04-25T11:28:45.146Z,40.22
2019-04-25T11:29:43.087Z,39.92
2019-04-25T11:30:45.220Z,40.75
2019-04-25T11:31:44.806Z,41.36
2019-04-25T11:32:43.713Z,39.98
2019-04-25T11:33:43.938Z,40.69
2019-04-25T11:34:43.389Z,41.69
2019-04-25T11:35:42.368Z,42.02
2019-04-25T11:36:42.984Z,42.21
2019-04-25T11:37:43.184Z,42.35
2019-04-25T11:38:42.682Z,42.18
2019-04-25T11:39:44.370Z,43.19
2019-04-25T11:40:46.560Z,43.68
2019-04-25T11:41:45.759Z,43.16
2019-04-25T11:42:43.218Z,43.16
2019-04-25T11:43:44.967Z,43.05
2019-04-25T11:44:44.958Z,43.43
2019-04-25T11:45:42.258Z,42.61
2019-04-25T11:46:44.453Z,42.38
2019-04-25T11:47:43.131Z,42.05
2019-04-25T11:48:44.201Z,41.44
2019-04-25T11:49:43.695Z,41.11
2019-04-25T11:50:44.098Z,41.52
2019-04-25T11:51:44.853Z,40.66
2019-04-25T11:52:43.717Z,40.75
2019-04-25T11:53:43.953Z,40.95
2019-04-25T11:54:45.423Z,40.86
2019-04-25T11:55:42.575Z,41.75
2019-04-25T11:56:43.337Z,42.35
2019-04-25T11:57:45.314Z,41.74
2019-04-25T11:58:45.570Z,41.14
2019-04-25T11:59:44.561Z,41.55
2019-04-25T12:00:42.944Z,42.69
2019-04-25T12:01:44.969Z,41.60
2019-04-25T12:02:43.895Z,41.30
2019-04-25T12:03:42.059Z,42.41
2019-04-25T12:04:42.692Z,43.70
2019-04-25T12:05:42.966Z,43.49
2019-04-25T12:06:43.125Z,43.19
2019-04-25T12:07:43.259Z,42.99
2019-04-25T12:08:42.006Z,41.71
2019-04-25T12:09:43.150Z,43.51
2019-04-25T12:10:43.129Z,43.82
2019-04-25T12:11:44.517Z,43.09
2019-04-25T12:12:44.173Z,44.17
2019-04-25T12:13:44.550Z,43.77
2019-04-25T12:14:44.171Z,42.76
2019-04-25T12:15:43.161Z,42.35
2019-04-25T12:16:46.103Z,42.46
2019-04-25T12:17:43.848Z,41.16
2019-04-25T12:18:44.779Z,41.25
2019-04-25T12:19:42.914Z,42.95
2019-04-25T12:20:41.891Z,41.09
2019-04-25T12:21:41.869Z,42.79
2019-04-25T12:22:43.548Z,43.29
2019-04-25T12:23:41.871Z,42.32
2019-04-25T12:24:43.528Z,43.24
2019-04-25T12:25:41.831Z,42.61
2019-04-25T12:26:43.736Z,42.13
2019-04-25T12:27:41.823Z,42.41
2019-04-25T12:28:41.793Z,42.91
2019-04-25T12:29:41.791Z,42.11
2019-04-25T12:30:41.800Z,43.62
2019-04-25T12:31:41.773Z,41.60
2019-04-25T12:32:41.757Z,41.39
2019-04-25T12:33:43.385Z,42.38
2019-04-25T12:34:41.730Z,42.05
2019-04-25T12:35:43.525Z,41.33
2019-04-25T12:36:41.720Z,40.34
2019-04-25T12:37:41.701Z,40.34
2019-04-25T12:38:41.687Z,40.44
2019-04-25T12:39:41.699Z,40.62
2019-04-25T12:40:43.277Z,40.32
2019-04-25T12:41:41.657Z,39.80
2019-04-25T12:42:41.648Z,40.58
2019-04-25T12:43:41.649Z,38.80
2019-04-25T12:44:41.653Z,40.10
2019-04-25T12:45:43.298Z,37.81
2019-04-25T12:46:41.620Z,39.00
2019-04-25T12:47:41.616Z,40.12
2019-04-25T12:48:43.114Z,40.42
2019-04-25T12:49:41.623Z,40.62
2019-04-25T12:50:41.565Z,40.14
2019-04-25T12:51:41.582Z,42.13
2019-04-25T12:52:43.205Z,40.64